createdAt,value
2023-02-13T00:01:22.613Z,22.58
2023-02-13T00:03:50.921Z,63.58
2023-02-13T00:06:19.140Z,115.50
2023-02-13T00:08:47.455Z,57.30
2023-02-13T00:11:15.760Z,21.88
2023-02-13T00:13:44.092Z,24.75
2023-02-13T00:16:12.487Z,34.17
2023-02-13T00:18:40.875Z,45.95
2023-02-13T00:21:12.119Z,45.90
2023-02-13T00:25:27.200Z,35.67
2023-02-13T00:27:55.809Z,33.00
2023-02-13T00:30:24.223Z,32.53
2023-02-13T00:32:52.871Z,23.65
2023-02-13T00:35:25.062Z,65.28
2023-02-13T00:37:53.810Z,21.70
2023-02-13T00:40:25.988Z,21.35
2023-02-13T00:42:54.222Z,18.33
2023-02-13T00:45:22.460Z,16.50
2023-02-13T00:47:50.707Z,14.40
2023-02-13T00:50:21.778Z,14.80
2023-02-13T00:52:49.946Z,14.30
2023-02-13T00:55:18.227Z,13.65
2023-02-13T00:57:46.537Z,14.00
2023-02-13T01:00:15.460Z,14.93
2023-02-13T01:02:43.728Z,16.23
2023-02-13T01:05:12.565Z,30.58
2023-02-13T01:07:40.840Z,44.65
2023-02-13T01:10:09.333Z,42.13
2023-02-13T01:12:37.571Z,38.33
2023-02-13T01:15:08.282Z,47.85
2023-02-13T01:17:36.455Z,59.78
2023-02-13T01:20:04.680Z,55.13
2023-02-13T01:22:33.045Z,54.60
2023-02-13T01:25:01.160Z,53.75
2023-02-13T01:27:32.155Z,49.63
2023-02-13T01:30:01.104Z,54.75
2023-02-13T01:32:30.661Z,56.17
2023-02-13T01:34:58.947Z,63.70
2023-02-13T01:37:27.320Z,52.05
2023-02-13T01:39:55.508Z,42.42
2023-02-13T01:42:27.850Z,39.17
2023-02-13T01:45:05.628Z,41.15
2023-02-13T01:47:40.341Z,37.20
2023-02-13T01:50:11.548Z,35.88
2023-02-13T01:52:46.098Z,35.27
2023-02-13T01:55:15.954Z,34.58
2023-02-13T01:57:48.438Z,32.17
2023-02-13T02:00:17.071Z,32.65
2023-02-13T02:03:02.722Z,32.03
2023-02-13T02:05:36.573Z,31.45
2023-02-13T02:08:08.776Z,31.70
2023-02-13T02:10:39.871Z,33.17
2023-02-13T02:13:13.155Z,36.90
2023-02-13T02:15:43.170Z,38.75
2023-02-13T02:18:19.856Z,41.63
2023-02-13T02:21:09.415Z,40.35
2023-02-13T02:24:08.854Z,39.90
2023-02-13T02:26:52.966Z,35.47
2023-02-13T02:29:50.805Z,33.97
2023-02-13T02:32:29.755Z,35.90
2023-02-13T02:35:29.170Z,34.38
2023-02-13T02:38:09.542Z,38.38
2023-02-13T02:40:56.527Z,40.08
2023-02-13T02:43:34.143Z,46.67
2023-02-13T02:46:12.215Z,51.72
2023-02-13T02:49:09.094Z,50.13
2023-02-13T02:51:58.375Z,49.10
2023-02-13T02:54:55.889Z,47.35
2023-02-13T02:57:32.539Z,46.42
2023-02-13T03:00:00.964Z,47.22
2023-02-13T03:02:31.250Z,46.50
2023-02-13T03:05:01.950Z,48.13
2023-02-13T03:07:30.229Z,51.88
2023-02-13T03:10:06.736Z,52.65
2023-02-13T03:12:46.786Z,56.00
2023-02-13T03:15:15.085Z,63.10
2023-02-13T03:17:44.095Z,68.15
2023-02-13T03:20:21.854Z,71.57
2023-02-13T03:23:17.705Z,67.25
2023-02-13T03:26:06.431Z,61.00
2023-02-13T03:28:42.835Z,56.80
2023-02-13T03:31:22.904Z,63.08
2023-02-13T03:34:20.012Z,52.83
2023-02-13T03:37:01.184Z,50.10
2023-02-13T03:39:35.917Z,47.72
2023-02-13T03:42:30.557Z,46.53
2023-02-13T03:45:24.470Z,52.47
2023-02-13T03:47:57.912Z,54.25
2023-02-13T03:50:28.633Z,51.00
2023-02-13T03:53:07.073Z,51.53
2023-02-13T03:55:48.503Z,51.42
2023-02-13T03:58:40.410Z,58.43
2023-02-13T04:01:12.522Z,58.05
2023-02-13T04:04:02.093Z,53.03
2023-02-13T04:06:52.814Z,47.72
2023-02-13T04:09:21.387Z,46.78
2023-02-13T04:12:04.679Z,44.22
2023-02-13T04:14:52.845Z,43.70
2023-02-13T04:17:33.114Z,42.10
2023-02-13T04:20:01.597Z,39.88
2023-02-13T04:22:29.870Z,43.85
2023-02-13T04:24:58.254Z,45.55
2023-02-13T04:27:28.660Z,49.20
2023-02-13T04:29:56.916Z,47.63
2023-02-13T04:32:25.037Z,45.05
2023-02-13T04:34:53.174Z,40.83
2023-02-13T04:37:21.505Z,38.80
2023-02-13T04:39:49.553Z,39.83
2023-02-13T04:42:17.838Z,38.50
2023-02-13T04:44:46.092Z,33.85
2023-02-13T04:47:14.244Z,32.83
2023-02-13T04:49:42.285Z,28.85
2023-02-13T04:52:10.573Z,28.45
2023-02-13T04:54:38.764Z,27.70
2023-02-13T04:57:06.820Z,24.27
2023-02-13T04:59:35.083Z,24.55
2023-02-13T05:02:03.537Z,22.52
2023-02-13T05:04:31.819Z,21.05
2023-02-13T05:07:00.092Z,22.52
2023-02-13T05:09:28.350Z,21.83
2023-02-13T05:11:56.596Z,20.85
2023-02-13T05:14:24.778Z,19.35
2023-02-13T05:16:53.008Z,18.98
2023-02-13T05:19:21.144Z,19.20
2023-02-13T05:21:49.407Z,18.25
2023-02-13T05:24:20.133Z,19.52
2023-02-13T05:26:49.122Z,18.95
2023-02-13T05:29:17.361Z,20.20
2023-02-13T05:31:53.160Z,19.92
2023-02-13T05:34:22.836Z,19.83
2023-02-13T05:36:51.796Z,18.80
2023-02-13T05:39:20.473Z,16.23
2023-02-13T05:41:49.594Z,17.30
2023-02-13T05:44:18.074Z,17.20
2023-02-13T05:46:46.371Z,15.20
2023-02-13T05:49:15.850Z,15.02
2023-02-13T05:51:44.815Z,15.63
2023-02-13T05:54:13.182Z,13.77
2023-02-13T05:56:41.593Z,15.13
2023-02-13T05:59:10.156Z,15.35
2023-02-13T06:01:38.522Z,16.45
2023-02-13T06:04:06.828Z,14.05
2023-02-13T06:06:35.100Z,12.90
2023-02-13T06:09:03.408Z,13.90
2023-02-13T06:11:31.508Z,14.73
2023-02-13T06:13:59.748Z,15.27
2023-02-13T06:16:27.971Z,13.77
2023-02-13T06:18:56.293Z,13.55
2023-02-13T06:21:30.142Z,13.40
2023-02-13T06:23:58.292Z,11.82
2023-02-13T06:26:26.575Z,11.55
2023-02-13T06:28:54.959Z,12.75
2023-02-13T06:31:23.298Z,13.35
2023-02-13T06:33:51.762Z,11.63
2023-02-13T06:36:19.928Z,10.95
2023-02-13T06:38:48.159Z,10.23
2023-02-13T06:41:16.423Z,10.05
2023-02-13T06:43:44.547Z,9.88
2023-02-13T06:46:12.860Z,10.95
2023-02-13T06:48:41.139Z,10.13
2023-02-13T06:51:10.139Z,11.20
2023-02-13T06:53:39.708Z,11.35
2023-02-13T06:56:07.987Z,10.48
2023-02-13T06:58:36.243Z,11.27
2023-02-13T07:01:04.969Z,11.98
2023-02-13T07:03:33.264Z,14.35
2023-02-13T07:06:01.605Z,13.80
2023-02-13T07:08:29.736Z,14.55
2023-02-13T07:10:58.282Z,14.02
2023-02-13T07:13:26.694Z,14.57
2023-02-13T07:15:54.915Z,14.45
2023-02-13T07:18:23.329Z,13.43
2023-02-13T07:20:51.398Z,13.30
2023-02-13T07:23:19.529Z,13.77
2023-02-13T07:25:47.889Z,14.15
2023-02-13T07:28:15.995Z,12.68
2023-02-13T07:30:44.213Z,11.77
2023-02-13T07:33:13.645Z,12.75
2023-02-13T07:35:48.137Z,11.52
2023-02-13T07:38:17.102Z,10.77
2023-02-13T07:40:45.812Z,12.77
2023-02-13T07:43:14.843Z,14.68
2023-02-13T07:45:42.997Z,21.30
2023-02-13T07:48:11.142Z,20.73
2023-02-13T07:50:42.228Z,17.25
2023-02-13T07:53:10.663Z,15.60
2023-02-13T07:55:38.959Z,16.15
2023-02-13T07:58:07.198Z,18.15
2023-02-13T08:00:35.404Z,15.68
2023-02-13T08:03:04.283Z,14.90
2023-02-13T08:05:33.874Z,16.27
2023-02-13T08:08:02.173Z,16.30
2023-02-13T08:10:30.505Z,16.13
2023-02-13T08:12:59.015Z,15.52
2023-02-13T08:15:27.257Z,14.60
2023-02-13T08:17:55.499Z,15.95
2023-02-13T08:20:23.913Z,14.52
2023-02-13T08:22:52.461Z,15.38
2023-02-13T08:25:21.067Z,14.18
2023-02-13T08:27:49.161Z,18.80
2023-02-13T08:30:17.855Z,18.77
2023-02-13T08:32:54.258Z,18.67
2023-02-13T08:35:23.893Z,17.02
2023-02-13T08:37:52.142Z,15.38
2023-02-13T08:40:20.594Z,16.65
2023-02-13T08:42:48.980Z,15.70
2023-02-13T08:45:17.192Z,16.77
2023-02-13T08:47:45.343Z,14.55
2023-02-13T08:50:13.716Z,12.57
2023-02-13T08:52:41.891Z,12.88
2023-02-13T08:55:09.992Z,13.95
2023-02-13T08:57:38.313Z,15.07
2023-02-13T09:00:07.136Z,17.58
2023-02-13T09:02:35.528Z,15.27
2023-02-13T09:05:04.046Z,13.82
2023-02-13T09:07:32.361Z,12.82
2023-02-13T09:10:00.723Z,13.50
2023-02-13T09:12:28.992Z,14.05
2023-02-13T09:14:57.200Z,15.27
2023-02-13T09:17:25.494Z,16.45
2023-02-13T09:19:53.827Z,15.82
2023-02-13T09:22:21.997Z,17.23
2023-02-13T09:24:50.228Z,16.05
2023-02-13T09:27:18.495Z,16.35
2023-02-13T09:29:46.983Z,13.40
2023-02-13T09:32:15.245Z,12.13
2023-02-13T09:34:43.490Z,13.60
2023-02-13T09:37:11.796Z,14.02
2023-02-13T09:39:39.925Z,12.45
2023-02-13T09:42:26.918Z,13.90
2023-02-13T09:44:59.442Z,12.65
2023-02-13T09:47:40.321Z,13.55
2023-02-13T09:50:17.054Z,13.32
2023-02-13T09:52:47.204Z,12.73
2023-02-13T09:55:18.304Z,12.18
2023-02-13T09:58:09.044Z,11.93
2023-02-13T10:00:43.348Z,15.20
2023-02-13T10:03:29.923Z,12.82
2023-02-13T10:06:34.652Z,13.95
2023-02-13T10:09:13.269Z,14.98
2023-02-13T10:11:50.531Z,15.65
2023-02-13T10:14:35.896Z,19.85
2023-02-13T10:17:16.320Z,27.70
2023-02-13T10:19:59.821Z,22.73
2023-02-13T10:22:38.073Z,25.67
2023-02-13T10:25:25.986Z,28.77
2023-02-13T10:28:01.231Z,23.38
2023-02-13T10:30:33.389Z,23.23
2023-02-13T10:33:04.509Z,22.50
2023-02-13T10:35:33.798Z,18.63
2023-02-13T10:38:13.268Z,16.88
2023-02-13T10:41:05.591Z,17.98
2023-02-13T10:46:40.160Z,14.50
2023-02-13T10:49:39.175Z,13.75
2023-02-13T10:52:27.654Z,14.82
2023-02-13T10:55:25.974Z,17.02
2023-02-13T10:58:03.217Z,12.38
2023-02-13T11:00:44.501Z,16.40
2023-02-13T11:03:21.398Z,12.70
2023-02-13T11:05:51.361Z,14.85
2023-02-13T11:08:40.092Z,13.55
2023-02-13T11:11:31.279Z,13.15
2023-02-13T11:14:22.720Z,16.73
2023-02-13T11:16:56.422Z,14.57
2023-02-13T11:19:58.791Z,14.57
2023-02-13T11:22:33.161Z,13.32
2023-02-13T11:25:23.617Z,11.98
2023-02-13T11:28:08.514Z,11.07
2023-02-13T11:30:40.814Z,14.57
2023-02-13T11:33:18.191Z,12.80
2023-02-13T11:35:47.887Z,11.77
2023-02-13T11:38:19.239Z,11.00
2023-02-13T11:41:14.446Z,10.82
2023-02-13T11:43:55.057Z,10.90
2023-02-13T11:46:27.163Z,12.07
2023-02-13T11:49:02.999Z,13.30
2023-02-13T11:51:48.170Z,16.67
2023-02-13T11:54:38.701Z,14.07
2023-02-13T11:57:23.763Z,12.70
2023-02-13T11:59:53.957Z,12.90
2023-02-13T12:02:44.933Z,13.52
2023-02-13T12:05:24.437Z,13.05
2023-02-13T12:07:55.927Z,13.70
2023-02-13T12:18:41.482Z,12.18
2023-02-13T12:24:43.126Z,13.48
2023-02-13T12:27:33.994Z,14.93
2023-02-13T12:30:20.466Z,14.70
2023-02-13T12:33:00.219Z,14.45
2023-02-13T12:35:34.660Z,15.10
2023-02-13T12:38:26.072Z,13.68
2023-02-13T12:41:17.347Z,13.13
2023-02-13T12:44:11.396Z,11.23
2023-02-13T12:50:49.069Z,13.98
2023-02-13T12:53:48.664Z,12.88
2023-02-13T12:56:39.815Z,12.50
2023-02-13T12:59:51.829Z,14.70
2023-02-13T13:02:52.022Z,15.32
2023-02-13T13:05:27.161Z,13.70
2023-02-13T13:08:18.330Z,14.90
2023-02-13T13:11:00.630Z,14.80
2023-02-13T13:13:44.193Z,13.38
2023-02-13T13:16:36.073Z,13.80
2023-02-13T13:19:35.282Z,14.02
2023-02-13T13:22:30.013Z,13.75
2023-02-13T13:25:14.142Z,13.52
2023-02-13T13:27:49.408Z,17.33
2023-02-13T13:30:22.626Z,13.93
2023-02-13T13:33:13.428Z,15.48
2023-02-13T13:35:47.438Z,14.55
2023-02-13T13:38:25.834Z,14.32
2023-02-13T13:41:10.085Z,16.20
2023-02-13T13:43:44.402Z,14.93
2023-02-13T13:46:28.381Z,14.68
2023-02-13T13:49:25.338Z,15.43
2023-02-13T13:51:53.797Z,15.38
2023-02-13T13:54:35.964Z,15.40
2023-02-13T13:59:35.251Z,13.02
2023-02-13T14:02:21.823Z,13.45
2023-02-13T14:05:03.981Z,14.43
2023-02-13T14:10:06.162Z,15.80
2023-02-13T14:12:37.457Z,16.85
2023-02-13T14:15:26.983Z,13.65
2023-02-13T14:17:56.352Z,14.05
2023-02-13T14:20:37.908Z,16.23
2023-02-13T14:23:24.189Z,16.48
2023-02-13T14:26:18.239Z,15.60
2023-02-13T14:28:52.569Z,16.35
2023-02-13T14:31:33.546Z,16.10
2023-02-13T14:34:12.697Z,14.13
2023-02-13T14:36:45.159Z,16.30
2023-02-13T14:39:29.197Z,13.88
2023-02-13T14:42:00.738Z,16.23
2023-02-13T14:44:57.148Z,13.00
2023-02-13T14:47:31.537Z,12.55
2023-02-13T14:50:02.492Z,15.80
2023-02-13T14:52:35.988Z,23.25
2023-02-13T14:55:14.801Z,14.07
2023-02-13T14:58:03.290Z,16.27
2023-02-13T15:00:46.631Z,17.10
2023-02-13T15:03:47.727Z,17.00
2023-02-13T15:06:27.809Z,16.15
2023-02-13T15:08:59.803Z,17.35
2023-02-13T15:11:42.369Z,20.40
2023-02-13T15:14:26.133Z,32.97
2023-02-13T15:17:00.388Z,17.30
2023-02-13T15:19:29.647Z,15.60
2023-02-13T15:22:05.662Z,16.13
2023-02-13T15:24:46.251Z,16.23
2023-02-13T15:27:44.319Z,16.73
2023-02-13T15:30:27.309Z,14.02
2023-02-13T15:32:57.974Z,18.50
2023-02-13T15:35:29.307Z,26.90
2023-02-13T15:37:58.240Z,25.23
2023-02-13T15:40:32.820Z,21.65
2023-02-13T15:43:02.021Z,20.55
2023-02-13T15:45:31.410Z,20.23
2023-02-13T15:47:59.572Z,19.70
2023-02-13T15:50:36.712Z,15.50
2023-02-13T15:53:11.300Z,15.48
2023-02-13T15:55:39.601Z,16.42
2023-02-13T15:58:13.613Z,14.57
2023-02-13T16:00:43.809Z,17.35
2023-02-13T16:03:17.613Z,18.83
2023-02-13T16:05:47.506Z,19.05
2023-02-13T16:08:32.482Z,17.70
2023-02-13T16:11:33.295Z,13.30
2023-02-13T16:14:06.901Z,16.70
2023-02-13T16:16:46.612Z,15.52
2023-02-13T16:19:40.536Z,15.57
2023-02-13T16:22:30.050Z,17.35
2023-02-13T16:25:27.654Z,15.73
2023-02-13T16:28:01.772Z,14.75
2023-02-13T16:30:34.141Z,16.75
2023-02-13T16:33:36.384Z,17.40
2023-02-13T16:36:10.503Z,14.05
2023-02-13T16:38:50.317Z,16.08
2023-02-13T16:41:18.523Z,13.88
2023-02-13T16:43:57.127Z,14.07
2023-02-13T16:46:39.154Z,17.02
2023-02-13T16:51:53.560Z,14.73
2023-02-13T16:54:38.133Z,17.85
2023-02-13T16:57:14.186Z,15.38
2023-02-13T16:59:48.644Z,13.73
2023-02-13T17:02:21.400Z,13.65
2023-02-13T17:16:55.578Z,14.97
2023-02-13T17:19:23.730Z,14.82
2023-02-13T17:21:52.049Z,14.13
2023-02-13T17:24:20.508Z,15.18
2023-02-13T17:26:48.596Z,15.68
2023-02-13T17:29:16.784Z,18.50
2023-02-13T17:31:45.216Z,16.55
2023-02-13T17:34:15.510Z,21.98
2023-02-13T17:36:43.689Z,17.42
2023-02-13T17:39:12.880Z,17.02
2023-02-13T17:41:41.370Z,16.38
2023-02-13T17:44:13.868Z,14.82
2023-02-13T17:46:42.468Z,15.55
2023-02-13T17:49:10.761Z,15.18
2023-02-13T17:51:45.656Z,15.70
2023-02-13T17:54:14.219Z,15.98
2023-02-13T17:56:42.619Z,15.55
2023-02-13T17:59:10.979Z,16.02
2023-02-13T18:01:39.362Z,17.15
2023-02-13T18:04:07.680Z,15.05
2023-02-13T18:07:20.052Z,15.98
2023-02-13T18:09:48.723Z,16.15
2023-02-13T18:12:20.098Z,14.27
2023-02-13T18:14:49.185Z,13.30
2023-02-13T18:17:17.832Z,14.05
2023-02-13T18:19:46.744Z,16.45
2023-02-13T18:22:15.142Z,14.88
2023-02-13T18:24:43.453Z,14.75
2023-02-13T18:27:11.811Z,14.13
2023-02-13T18:29:40.340Z,13.75
2023-02-13T18:32:10.486Z,14.02
2023-02-13T18:34:40.215Z,12.82
2023-02-13T18:37:09.177Z,14.10
2023-02-13T18:39:37.333Z,15.57
2023-02-13T18:42:06.653Z,15.52
2023-02-13T18:44:35.231Z,13.80
2023-02-13T18:47:03.462Z,14.18
2023-02-13T18:49:31.864Z,21.45
2023-02-13T18:52:00.051Z,16.33
2023-02-13T18:56:33.809Z,16.77
2023-02-13T18:59:01.965Z,15.35
2023-02-13T19:01:30.495Z,19.75
2023-02-13T19:03:58.710Z,14.60
2023-02-13T19:06:26.884Z,28.08
2023-02-13T19:08:56.828Z,23.52
2023-02-13T19:11:26.446Z,20.15
2023-02-13T19:13:57.256Z,15.77
2023-02-13T19:16:25.781Z,14.80
2023-02-13T19:18:57.520Z,13.93
2023-02-13T19:21:27.763Z,14.23
2023-02-13T19:23:56.190Z,15.48
2023-02-13T19:26:26.707Z,14.35
2023-02-13T19:28:56.681Z,19.75
2023-02-13T19:31:27.639Z,18.52
2023-02-13T19:33:56.375Z,15.88
2023-02-13T19:36:26.877Z,13.30
2023-02-13T19:38:57.609Z,14.88
2023-02-13T19:41:26.357Z,18.23
2023-02-13T19:43:54.762Z,22.23
2023-02-13T19:46:28.588Z,17.20
2023-02-13T19:48:57.941Z,19.40
2023-02-13T19:51:28.720Z,18.27
2023-02-13T19:54:03.038Z,15.32
2023-02-13T19:56:32.214Z,14.93
2023-02-13T19:59:00.486Z,18.58
2023-02-13T20:01:30.102Z,16.98
2023-02-13T20:03:58.725Z,16.38
2023-02-13T20:06:31.276Z,15.80
2023-02-13T20:09:01.020Z,17.60
2023-02-13T20:11:29.650Z,18.77
2023-02-13T20:13:59.816Z,20.67
2023-02-13T20:16:28.762Z,25.25
2023-02-13T20:18:57.148Z,24.55
2023-02-13T20:21:25.360Z,25.52
2023-02-13T20:23:53.546Z,15.63
2023-02-13T20:26:21.886Z,17.45
2023-02-13T20:28:50.050Z,17.48
2023-02-13T20:31:21.027Z,20.00
2023-02-13T20:33:51.145Z,19.00
2023-02-13T20:36:32.801Z,15.93
2023-02-13T20:39:03.415Z,15.00
2023-02-13T20:41:33.851Z,15.32
2023-02-13T20:44:08.437Z,20.02
2023-02-13T20:46:38.936Z,25.90
2023-02-13T20:49:07.973Z,24.88
2023-02-13T20:51:36.282Z,20.90
2023-02-13T20:54:08.595Z,18.00
2023-02-13T20:56:36.949Z,23.65
2023-02-13T20:59:06.074Z,25.38
2023-02-13T21:01:36.531Z,20.23
2023-02-13T21:04:04.790Z,22.73
2023-02-13T21:06:37.814Z,22.38
2023-02-13T21:09:07.878Z,23.80
2023-02-13T21:11:38.108Z,21.15
2023-02-13T21:14:06.976Z,20.33
2023-02-13T21:16:38.269Z,20.23
2023-02-13T21:19:12.513Z,22.65
2023-02-13T21:50:12.918Z,19.52
2023-02-13T21:52:41.268Z,20.00
2023-02-13T21:55:09.648Z,36.90
2023-02-13T21:57:37.910Z,24.90
2023-02-13T22:00:07.471Z,21.42
2023-02-13T22:02:40.760Z,23.05
2023-02-13T22:05:10.931Z,36.92
2023-02-13T22:07:39.694Z,51.83
2023-02-13T22:10:08.708Z,40.00
2023-02-13T22:12:37.336Z,30.50
2023-02-13T22:15:06.036Z,22.17
2023-02-13T22:17:35.862Z,24.63
2023-02-13T22:20:05.147Z,23.77
2023-02-13T22:22:33.442Z,22.10
2023-02-13T22:25:01.737Z,22.45
2023-02-13T22:27:32.690Z,20.45
2023-02-13T22:30:01.293Z,19.37
2023-02-13T22:32:29.532Z,38.60
2023-02-13T22:34:57.854Z,60.30
2023-02-13T22:37:25.972Z,61.35
2023-02-13T22:39:54.206Z,64.15
2023-02-13T22:42:22.616Z,57.20
2023-02-13T22:44:50.960Z,49.92
2023-02-13T22:47:19.316Z,40.85
2023-02-13T22:49:47.786Z,44.63
2023-02-13T22:52:16.402Z,64.60
2023-02-13T22:54:44.685Z,46.42
2023-02-13T22:57:12.846Z,37.17
2023-02-13T22:59:41.250Z,68.13
2023-02-13T23:02:09.668Z,120.70
2023-02-13T23:04:38.053Z,59.78
2023-02-13T23:07:06.292Z,55.10
2023-02-13T23:09:34.519Z,72.32
2023-02-13T23:12:02.760Z,65.45
2023-02-13T23:14:31.429Z,42.90
2023-02-13T23:16:59.846Z,91.88
2023-02-13T23:19:28.743Z,107.78
2023-02-13T23:21:56.997Z,86.68
2023-02-13T23:24:25.391Z,42.67
2023-02-13T23:26:53.668Z,29.58
2023-02-13T23:29:22.279Z,31.30
2023-02-13T23:31:50.757Z,30.52
2023-02-13T23:34:19.188Z,32.33
2023-02-13T23:36:47.531Z,43.45
2023-02-13T23:39:15.808Z,50.78
2023-02-13T23:41:44.230Z,43.35
2023-02-13T23:44:12.517Z,48.65
2023-02-13T23:46:40.850Z,45.08
2023-02-13T23:49:09.454Z,38.10
2023-02-13T23:51:37.704Z,44.72
2023-02-13T23:54:06.014Z,42.08
2023-02-13T23:56:34.346Z,50.45
2023-02-13T23:59:04.069Z,73.95
